sensor_id;sensor_type;location;lat;lon;timestamp;pressure;altitude;pressure_sealevel;temperature;humidity
67842;BME280;54642;59.126;37.876;2022-09-02T00:00:55;98825.19;;;7.89;79.61
67842;BME280;54642;59.126;37.876;2022-09-02T00:03:26;98824.38;;;7.86;79.88
67842;BME280;54642;59.126;37.876;2022-09-02T00:05:52;98838.91;;;7.91;79.72
67842;BME280;54642;59.126;37.876;2022-09-02T00:08:18;98828.59;;;7.91;79.63
67842;BME280;54642;59.126;37.876;2022-09-02T00:10:44;98827.81;;;7.85;79.60
67842;BME280;54642;59.126;37.876;2022-09-02T00:13:13;98845.81;;;7.91;79.65
67842;BME280;54642;59.126;37.876;2022-09-02T00:15:41;98826.97;;;7.84;79.61
67842;BME280;54642;59.126;37.876;2022-09-02T00:18:07;98837.16;;;7.95;79.67
67842;BME280;54642;59.126;37.876;2022-09-02T00:20:40;98840.63;;;7.92;79.86
67842;BME280;54642;59.126;37.876;2022-09-02T00:23:07;98842.28;;;7.96;79.67
67842;BME280;54642;59.126;37.876;2022-09-02T00:25:34;98838.88;;;7.96;79.68
67842;BME280;54642;59.126;37.876;2022-09-02T00:28:00;98791.03;;;7.72;79.81
67842;BME280;54642;59.126;37.876;2022-09-02T00:30:26;98832.13;;;7.86;79.84
67842;BME280;54642;59.126;37.876;2022-09-02T00:32:53;98826.78;;;7.98;79.80
67842;BME280;54642;59.126;37.876;2022-09-02T00:35:19;98833.66;;;7.97;79.89
67842;BME280;54642;59.126;37.876;2022-09-02T00:37:45;98849.13;;;7.97;79.71
67842;BME280;54642;59.126;37.876;2022-09-02T00:40:12;98824.28;;;7.92;79.89
67842;BME280;54642;59.126;37.876;2022-09-02T00:42:38;98831.13;;;7.96;79.40
67842;BME280;54642;59.126;37.876;2022-09-02T00:45:05;98826.88;;;7.92;79.68
67842;BME280;54642;59.126;37.876;2022-09-02T00:47:32;98836.34;;;7.91;79.68
67842;BME280;54642;59.126;37.876;2022-09-02T00:49:59;98829.53;;;7.86;79.63
67842;BME280;54642;59.126;37.876;2022-09-02T00:52:36;98792.91;;;7.60;79.89
67842;BME280;54642;59.126;37.876;2022-09-02T00:55:13;98837.31;;;7.82;79.83
67842;BME280;54642;59.126;37.876;2022-09-02T00:57:54;98832.16;;;7.81;79.86
67842;BME280;54642;59.126;37.876;2022-09-02T01:00:25;98831.31;;;7.82;79.70
67842;BME280;54642;59.126;37.876;2022-09-02T01:03:01;98812.63;;;7.64;79.86
67842;BME280;54642;59.126;37.876;2022-09-02T01:05:29;98832.97;;;7.85;79.69
67842;BME280;54642;59.126;37.876;2022-09-02T01:07:57;98818.53;;;7.73;79.71
67842;BME280;54642;59.126;37.876;2022-09-02T01:10:26;98833.09;;;7.78;79.60
67842;BME280;54642;59.126;37.876;2022-09-02T01:13:03;98785.34;;;7.48;79.72
67842;BME280;54642;59.126;37.876;2022-09-02T01:15:34;98805.84;;;7.57;79.85
67842;BME280;54642;59.126;37.876;2022-09-02T01:18:04;98842.50;;;7.81;79.72
67842;BME280;54642;59.126;37.876;2022-09-02T01:20:32;98830.50;;;7.77;79.89
67842;BME280;54642;59.126;37.876;2022-09-02T01:22:58;98787.88;;;7.51;79.82
67842;BME280;54642;59.126;37.876;2022-09-02T01:25:28;98836.50;;;7.80;80.00
67842;BME280;54642;59.126;37.876;2022-09-02T01:28:22;98841.56;;;7.85;79.69
67842;BME280;54642;59.126;37.876;2022-09-02T01:30:50;98844.22;;;7.80;79.82
67842;BME280;54642;59.126;37.876;2022-09-02T01:33:18;98845.97;;;7.80;79.78
67842;BME280;54642;59.126;37.876;2022-09-02T01:35:44;98835.66;;;7.78;79.78
67842;BME280;54642;59.126;37.876;2022-09-02T01:38:11;98840.81;;;7.80;79.74
67842;BME280;54642;59.126;37.876;2022-09-02T01:40:37;98855.41;;;7.78;79.68
67842;BME280;54642;59.126;37.876;2022-09-02T01:43:13;98841.69;;;7.76;79.72
67842;BME280;54642;59.126;37.876;2022-09-02T01:45:41;98858.88;;;7.78;79.68
67842;BME280;54642;59.126;37.876;2022-09-02T01:48:10;98807.63;;;7.52;79.69
67842;BME280;54642;59.126;37.876;2022-09-02T01:50:39;98802.44;;;7.55;79.69
67842;BME280;54642;59.126;37.876;2022-09-02T01:53:05;98830.66;;;7.66;79.63
67842;BME280;54642;59.126;37.876;2022-09-02T01:55:33;98855.38;;;7.81;79.54
67842;BME280;54642;59.126;37.876;2022-09-02T01:57:59;98846.88;;;7.74;79.40
67842;BME280;54642;59.126;37.876;2022-09-02T02:00:26;98863.13;;;7.81;79.50
67842;BME280;54642;59.126;37.876;2022-09-02T02:02:53;98854.59;;;7.76;79.46
67842;BME280;54642;59.126;37.876;2022-09-02T02:05:19;98860.56;;;7.79;79.49
67842;BME280;54642;59.126;37.876;2022-09-02T02:07:48;98841.84;;;7.63;79.48
67842;BME280;54642;59.126;37.876;2022-09-02T02:10:18;98869.19;;;7.77;79.52
67842;BME280;54642;59.126;37.876;2022-09-02T02:12:44;98810.28;;;7.46;79.60
67842;BME280;54642;59.126;37.876;2022-09-02T02:15:14;98852.84;;;7.78;79.46
67842;BME280;54642;59.126;37.876;2022-09-02T02:17:41;98871.81;;;7.72;79.27
67842;BME280;54642;59.126;37.876;2022-09-02T02:20:09;98807.72;;;7.44;79.16
67842;BME280;54642;59.126;37.876;2022-09-02T02:22:35;98823.09;;;7.51;79.25
67842;BME280;54642;59.126;37.876;2022-09-02T02:25:03;98851.28;;;7.68;79.21
67842;BME280;54642;59.126;37.876;2022-09-02T02:27:29;98850.47;;;7.64;78.98
67842;BME280;54642;59.126;37.876;2022-09-02T02:29:58;98865.00;;;7.70;79.14
67842;BME280;54642;59.126;37.876;2022-09-02T02:32:24;98870.19;;;7.67;79.21
67842;BME280;54642;59.126;37.876;2022-09-02T02:34:52;98821.56;;;7.36;79.14
67842;BME280;54642;59.126;37.876;2022-09-02T02:37:19;98869.31;;;7.69;79.00
67842;BME280;54642;59.126;37.876;2022-09-02T02:39:46;98723.53;;;6.72;79.04
67842;BME280;54642;59.126;37.876;2022-09-02T02:42:12;98877.91;;;7.68;79.14
67842;BME280;54642;59.126;37.876;2022-09-02T02:44:40;98883.03;;;7.70;79.24
67842;BME280;54642;59.126;37.876;2022-09-02T02:47:07;98887.31;;;7.71;79.09
67842;BME280;54642;59.126;37.876;2022-09-02T02:49:39;98881.31;;;7.69;78.94
67842;BME280;54642;59.126;37.876;2022-09-02T02:52:06;98848.13;;;7.42;78.91
67842;BME280;54642;59.126;37.876;2022-09-02T02:54:32;98852.41;;;7.43;78.92
67842;BME280;54642;59.126;37.876;2022-09-02T02:56:59;98889.13;;;7.66;79.03
67842;BME280;54642;59.126;37.876;2022-09-02T02:59:26;98871.22;;;7.53;78.78
67842;BME280;54642;59.126;37.876;2022-09-02T03:01:54;98900.25;;;7.68;79.15
67842;BME280;54642;59.126;37.876;2022-09-02T03:04:20;98914.00;;;7.68;78.79
67842;BME280;54642;59.126;37.876;2022-09-02T03:06:46;98912.25;;;7.69;78.99
67842;BME280;54642;59.126;37.876;2022-09-02T03:09:12;98906.25;;;7.70;78.88
67842;BME280;54642;59.126;37.876;2022-09-02T03:11:38;98862.72;;;7.42;78.84
67842;BME280;54642;59.126;37.876;2022-09-02T03:14:05;98908.84;;;7.68;78.70
67842;BME280;54642;59.126;37.876;2022-09-02T03:16:34;98905.47;;;7.61;78.61
67842;BME280;54642;59.126;37.876;2022-09-02T03:19:01;98912.28;;;7.67;78.84
67842;BME280;54642;59.126;37.876;2022-09-02T03:21:29;98867.94;;;7.39;78.59
67842;BME280;54642;59.126;37.876;2022-09-02T03:23:55;98890.09;;;7.55;78.49
67842;BME280;54642;59.126;37.876;2022-09-02T03:26:23;98917.47;;;7.66;78.65
67842;BME280;54642;59.126;37.876;2022-09-02T03:28:52;98923.41;;;7.71;78.76
67842;BME280;54642;59.126;37.876;2022-09-02T03:31:21;98913.19;;;7.64;78.66
67842;BME280;54642;59.126;37.876;2022-09-02T03:33:49;98929.47;;;7.70;78.19
67842;BME280;54642;59.126;37.876;2022-09-02T03:38:46;98910.63;;;7.63;78.39
67842;BME280;54642;59.126;37.876;2022-09-02T03:41:12;98926.88;;;7.70;78.35
67842;BME280;54642;59.126;37.876;2022-09-02T03:43:39;98879.94;;;7.38;78.37
67842;BME280;54642;59.126;37.876;2022-09-02T03:46:05;98930.31;;;7.69;78.42
67842;BME280;54642;59.126;37.876;2022-09-02T03:48:31;98938.94;;;7.69;78.30
67842;BME280;54642;59.126;37.876;2022-09-02T03:50:57;98942.34;;;7.71;78.35
67842;BME280;54642;59.126;37.876;2022-09-02T03:53:23;98935.53;;;7.66;78.17
67842;BME280;54642;59.126;37.876;2022-09-02T03:55:54;98944.91;;;7.73;78.24
67842;BME280;54642;59.126;37.876;2022-09-02T03:58:23;98950.09;;;7.70;78.01
67842;BME280;54642;59.126;37.876;2022-09-02T04:00:52;98939.81;;;7.63;78.45
67842;BME280;54642;59.126;37.876;2022-09-02T04:03:20;98939.88;;;7.62;78.36
67842;BME280;54642;59.126;37.876;2022-09-02T04:05:48;98960.44;;;7.67;78.27
67842;BME280;54642;59.126;37.876;2022-09-02T04:08:17;98946.72;;;7.63;78.41
67842;BME280;54642;59.126;37.876;2022-09-02T04:10:43;98942.50;;;7.54;78.55
67842;BME280;54642;59.126;37.876;2022-09-02T04:13:09;98969.06;;;7.62;78.73
67842;BME280;54642;59.126;37.876;2022-09-02T04:15:43;98946.81;;;7.55;78.64
67842;BME280;54642;59.126;37.876;2022-09-02T04:18:14;98940.03;;;7.47;78.76
67842;BME280;54642;59.126;37.876;2022-09-02T04:20:41;98970.00;;;7.57;78.66
67842;BME280;54642;59.126;37.876;2022-09-02T04:23:08;98930.63;;;7.39;78.79
67842;BME280;54642;59.126;37.876;2022-09-02T04:25:40;98917.88;;;7.25;78.89
67842;BME280;54642;59.126;37.876;2022-09-02T04:28:08;98982.88;;;7.58;78.98
67842;BME280;54642;59.126;37.876;2022-09-02T04:30:34;98971.69;;;7.56;78.82
67842;BME280;54642;59.126;37.876;2022-09-02T04:33:02;98975.97;;;7.62;78.67
67842;BME280;54642;59.126;37.876;2022-09-02T04:35:28;98922.09;;;7.36;78.70
67842;BME280;54642;59.126;37.876;2022-09-02T04:37:54;98963.19;;;7.51;78.95
67842;BME280;54642;59.126;37.876;2022-09-02T04:40:20;98973.41;;;7.59;78.77
67842;BME280;54642;59.126;37.876;2022-09-02T04:42:47;98982.00;;;7.58;78.90
67842;BME280;54642;59.126;37.876;2022-09-02T04:45:13;98935.06;;;7.28;78.95
67842;BME280;54642;59.126;37.876;2022-09-02T04:47:39;98980.25;;;7.61;79.09
67842;BME280;54642;59.126;37.876;2022-09-02T04:50:06;98990.53;;;7.64;79.02
67842;BME280;54642;59.126;37.876;2022-09-02T04:52:35;98929.81;;;7.36;78.72
67842;BME280;54642;59.126;37.876;2022-09-02T04:55:01;98984.53;;;7.66;78.87
67842;BME280;54642;59.126;37.876;2022-09-02T04:57:30;98977.63;;;7.66;78.86
67842;BME280;54642;59.126;37.876;2022-09-02T04:59:57;98984.41;;;7.75;78.93
67842;BME280;54642;59.126;37.876;2022-09-02T05:02:23;98985.25;;;7.75;78.90
67842;BME280;54642;59.126;37.876;2022-09-02T05:04:50;98987.00;;;7.75;78.79
67842;BME280;54642;59.126;37.876;2022-09-02T05:07:24;99001.56;;;7.80;78.88
67842;BME280;54642;59.126;37.876;2022-09-02T05:09:56;98980.16;;;7.71;78.79
67842;BME280;54642;59.126;37.876;2022-09-02T05:12:23;98990.41;;;7.75;78.60
67842;BME280;54642;59.126;37.876;2022-09-02T05:14:55;98994.75;;;7.72;78.60
67842;BME280;54642;59.126;37.876;2022-09-02T05:17:23;98914.50;;;7.19;78.61
67842;BME280;54642;59.126;37.876;2022-09-02T05:19:49;99010.25;;;7.70;78.85
67842;BME280;54642;59.126;37.876;2022-09-02T05:22:16;99005.16;;;7.64;78.80
67842;BME280;54642;59.126;37.876;2022-09-02T05:24:43;99006.91;;;7.60;78.83
67842;BME280;54642;59.126;37.876;2022-09-02T05:27:12;99009.41;;;7.70;78.87
67842;BME280;54642;59.126;37.876;2022-09-02T05:29:41;99006.84;;;7.67;79.12
67842;BME280;54642;59.126;37.876;2022-09-02T05:32:07;99018.81;;;7.71;79.01
67842;BME280;54642;59.126;37.876;2022-09-02T05:34:35;99018.00;;;7.67;78.88
67842;BME280;54642;59.126;37.876;2022-09-02T05:37:03;99038.63;;;7.67;79.03
67842;BME280;54642;59.126;37.876;2022-09-02T05:39:30;98995.06;;;7.44;79.13
67842;BME280;54642;59.126;37.876;2022-09-02T05:41:57;99043.81;;;7.66;78.99
67842;BME280;54642;59.126;37.876;2022-09-02T05:44:24;99046.41;;;7.66;78.95
67842;BME280;54642;59.126;37.876;2022-09-02T05:46:50;99037.84;;;7.62;78.94
67842;BME280;54642;59.126;37.876;2022-09-02T05:49:17;99043.03;;;7.59;79.08
67842;BME280;54642;59.126;37.876;2022-09-02T05:52:03;99051.59;;;7.59;79.08
67842;BME280;54642;59.126;37.876;2022-09-02T05:54:38;99015.72;;;7.38;79.01
67842;BME280;54642;59.126;37.876;2022-09-02T05:57:12;99040.44;;;7.57;79.19
67842;BME280;54642;59.126;37.876;2022-09-02T05:59:42;99062.72;;;7.64;79.06
67842;BME280;54642;59.126;37.876;2022-09-02T06:02:15;99006.28;;;7.35;79.05
67842;BME280;54642;59.126;37.876;2022-09-02T06:04:44;99020.00;;;7.40;79.25
67842;BME280;54642;59.126;37.876;2022-09-02T06:07:12;99055.84;;;7.65;79.09
67842;BME280;54642;59.126;37.876;2022-09-02T06:09:39;99075.59;;;7.69;79.07
67842;BME280;54642;59.126;37.876;2022-09-02T06:12:07;99065.28;;;7.68;79.45
67842;BME280;54642;59.126;37.876;2022-09-02T06:14:34;99057.66;;;7.58;78.99
67842;BME280;54642;59.126;37.876;2022-09-02T06:17:00;99024.34;;;7.35;79.16
67842;BME280;54642;59.126;37.876;2022-09-02T06:19:34;99054.25;;;7.53;79.27
67842;BME280;54642;59.126;37.876;2022-09-02T06:22:03;99085.09;;;7.66;79.16
67842;BME280;54642;59.126;37.876;2022-09-02T06:24:32;99079.09;;;7.60;78.96
67842;BME280;54642;59.126;37.876;2022-09-02T06:27:04;98992.78;;;7.07;78.96
67842;BME280;54642;59.126;37.876;2022-09-02T06:29:32;99020.13;;;7.23;79.09
67842;BME280;54642;59.126;37.876;2022-09-02T06:31:58;99091.09;;;7.68;79.09
67842;BME280;54642;59.126;37.876;2022-09-02T06:34:24;99091.94;;;7.68;79.39
67842;BME280;54642;59.126;37.876;2022-09-02T06:36:53;99101.31;;;7.74;79.09
67842;BME280;54642;59.126;37.876;2022-09-02T06:39:23;99103.91;;;7.71;79.15
67842;BME280;54642;59.126;37.876;2022-09-02T06:41:52;99113.31;;;7.78;79.05
67842;BME280;54642;59.126;37.876;2022-09-02T06:44:20;99111.63;;;7.75;79.01
67842;BME280;54642;59.126;37.876;2022-09-02T06:46:53;99071.47;;;7.51;79.00
67842;BME280;54642;59.126;37.876;2022-09-02T06:49:19;99111.63;;;7.78;78.90
67842;BME280;54642;59.126;37.876;2022-09-02T06:51:49;99081.69;;;7.60;78.92
67842;BME280;54642;59.126;37.876;2022-09-02T06:54:17;99115.03;;;7.82;78.91
67842;BME280;54642;59.126;37.876;2022-09-02T06:56:46;99116.69;;;7.86;78.91
67842;BME280;54642;59.126;37.876;2022-09-02T06:59:13;99125.25;;;7.91;78.86
67842;BME280;54642;59.126;37.876;2022-09-02T07:01:47;99129.56;;;7.92;78.69
67842;BME280;54642;59.126;37.876;2022-09-02T07:04:17;99091.09;;;7.68;78.59
67842;BME280;54642;59.126;37.876;2022-09-02T07:07:05;99133.81;;;7.98;78.69
67842;BME280;54642;59.126;37.876;2022-09-02T07:09:35;99127.81;;;7.96;78.67
67842;BME280;54642;59.126;37.876;2022-09-02T07:12:09;99138.91;;;8.02;78.53
67842;BME280;54642;59.126;37.876;2022-09-02T07:14:42;99133.75;;;8.01;78.62
67842;BME280;54642;59.126;37.876;2022-09-02T07:17:12;99128.56;;;8.02;78.44
67842;BME280;54642;59.126;37.876;2022-09-02T07:19:46;99149.94;;;8.15;78.42
67842;BME280;54642;59.126;37.876;2022-09-02T07:22:13;99131.16;;;8.02;78.13
67842;BME280;54642;59.126;37.876;2022-09-02T07:24:42;99147.44;;;8.09;78.24
67842;BME280;54642;59.126;37.876;2022-09-02T07:27:09;99149.94;;;8.15;77.92
67842;BME280;54642;59.126;37.876;2022-09-02T07:29:36;99147.38;;;8.15;78.09
67842;BME280;54642;59.126;37.876;2022-09-02T07:32:04;99107.22;;;7.88;78.13
67842;BME280;54642;59.126;37.876;2022-09-02T07:34:30;99148.19;;;8.19;77.87
67842;BME280;54642;59.126;37.876;2022-09-02T07:36:57;99165.38;;;8.25;78.00
67842;BME280;54642;59.126;37.876;2022-09-02T07:39:23;99178.13;;;8.37;77.76
67842;BME280;54642;59.126;37.876;2022-09-02T07:41:50;99164.41;;;8.33;77.87
67842;BME280;54642;59.126;37.876;2022-09-02T07:44:20;99126.72;;;8.15;77.81
67842;BME280;54642;59.126;37.876;2022-09-02T07:46:48;99179.84;;;8.43;77.51
67842;BME280;54642;59.126;37.876;2022-09-02T07:49:19;99168.69;;;8.37;77.81
67842;BME280;54642;59.126;37.876;2022-09-02T07:51:49;99189.28;;;8.47;77.73
67842;BME280;54642;59.126;37.876;2022-09-02T07:54:19;99202.16;;;8.48;77.38
67842;BME280;54642;59.126;37.876;2022-09-02T07:56:47;99171.25;;;8.39;77.18
67842;BME280;54642;59.126;37.876;2022-09-02T07:59:17;99200.41;;;8.53;77.14
67842;BME280;54642;59.126;37.876;2022-09-02T08:01:46;99204.69;;;8.53;77.02
67842;BME280;54642;59.126;37.876;2022-09-02T08:04:15;99167.03;;;8.32;77.10
67842;BME280;54642;59.126;37.876;2022-09-02T08:06:41;99211.50;;;8.60;77.31
67842;BME280;54642;59.126;37.876;2022-09-02T08:09:08;99201.22;;;8.57;76.93
67842;BME280;54642;59.126;37.876;2022-09-02T08:11:41;99200.41;;;8.52;76.86
67842;BME280;54642;59.126;37.876;2022-09-02T08:14:12;99220.16;;;8.56;76.83
67842;BME280;54642;59.126;37.876;2022-09-02T08:16:38;99213.25;;;8.58;76.97
67842;BME280;54642;59.126;37.876;2022-09-02T08:19:06;99220.03;;;8.68;76.48
67842;BME280;54642;59.126;37.876;2022-09-02T08:21:32;99229.44;;;8.72;76.22
67842;BME280;54642;59.126;37.876;2022-09-02T08:23:58;99230.31;;;8.73;76.09
67842;BME280;54642;59.126;37.876;2022-09-02T08:26:25;99215.81;;;8.58;76.48
67842;BME280;54642;59.126;37.876;2022-09-02T08:28:54;99235.41;;;8.81;76.35
67842;BME280;54642;59.126;37.876;2022-09-02T08:31:20;99220.84;;;8.73;76.10
67842;BME280;54642;59.126;37.876;2022-09-02T08:33:46;99251.63;;;8.90;75.99
67842;BME280;54642;59.126;37.876;2022-09-02T08:36:12;99244.72;;;8.94;75.94
67842;BME280;54642;59.126;37.876;2022-09-02T08:38:40;99231.94;;;8.82;75.96
67842;BME280;54642;59.126;37.876;2022-09-02T08:43:48;99252.56;;;8.83;76.08
67842;BME280;54642;59.126;37.876;2022-09-02T08:46:16;99250.81;;;8.85;76.05
67842;BME280;54642;59.126;37.876;2022-09-02T08:51:32;99270.53;;;8.97;76.01
67842;BME280;54642;59.126;37.876;2022-09-02T08:54:15;99271.34;;;9.02;76.02
67842;BME280;54642;59.126;37.876;2022-09-02T08:56:45;99283.53;;;8.91;75.90
67842;BME280;54642;59.126;37.876;2022-09-02T08:59:13;99302.47;;;8.90;76.04
67842;BME280;54642;59.126;37.876;2022-09-02T09:01:49;99279.28;;;8.84;75.98
67842;BME280;54642;59.126;37.876;2022-09-02T09:17:57;99297.06;;;9.13;75.52
67842;BME280;54642;59.126;37.876;2022-09-02T09:20:26;99315.00;;;9.27;75.26
67842;BME280;54642;59.126;37.876;2022-09-02T09:22:59;99319.22;;;9.34;75.17
67842;BME280;54642;59.126;37.876;2022-09-02T09:25:27;99313.94;;;9.43;75.01
67842;BME280;54642;59.126;37.876;2022-09-02T09:27:57;99297.63;;;9.38;74.65
67842;BME280;54642;59.126;37.876;2022-09-02T09:30:24;99322.50;;;9.50;74.68
67842;BME280;54642;59.126;37.876;2022-09-02T09:32:52;99307.88;;;9.44;74.71
67842;BME280;54642;59.126;37.876;2022-09-02T09:35:20;99308.78;;;9.40;74.38
67842;BME280;54642;59.126;37.876;2022-09-02T09:37:50;99317.34;;;9.45;74.36
67842;BME280;54642;59.126;37.876;2022-09-02T09:40:27;99281.53;;;9.16;74.50
67842;BME280;54642;59.126;37.876;2022-09-02T09:45:46;99198.78;;;8.43;75.13
67842;BME280;54642;59.126;37.876;2022-09-02T09:53:27;99322.88;;;9.18;75.31
67842;BME280;54642;59.126;37.876;2022-09-02T09:55:55;99342.34;;;9.48;75.03
67842;BME280;54642;59.126;37.876;2022-09-02T09:58:36;99358.28;;;9.82;74.81
67842;BME280;54642;59.126;37.876;2022-09-02T10:01:14;99357.19;;;10.00;74.31
67842;BME280;54642;59.126;37.876;2022-09-02T10:03:47;99350.09;;;10.13;73.96
67842;BME280;54642;59.126;37.876;2022-09-02T10:06:22;99320.13;;;9.97;73.69
67842;BME280;54642;59.126;37.876;2022-09-02T10:09:03;99262.16;;;9.48;73.43
67842;BME280;54642;59.126;37.876;2022-09-02T10:11:35;99364.84;;;10.06;73.46
67842;BME280;54642;59.126;37.876;2022-09-02T10:14:06;99371.91;;;9.95;73.90
67842;BME280;54642;59.126;37.876;2022-09-02T10:17:24;99379.72;;;9.92;73.96
67842;BME280;54642;59.126;37.876;2022-09-02T10:19:36;99332.69;;;9.61;73.73
67842;BME280;54642;59.126;37.876;2022-09-02T10:28:05;99387.16;;;10.15;72.90
67842;BME280;54642;59.126;37.876;2022-09-02T10:30:25;99387.28;;;10.09;72.99
67842;BME280;54642;59.126;37.876;2022-09-02T10:35:45;99392.75;;;9.87;73.66
67842;BME280;54642;59.126;37.876;2022-09-02T10:38:38;99408.19;;;9.90;74.06
67842;BME280;54642;59.126;37.876;2022-09-02T10:44:16;99408.13;;;9.97;74.31
67842;BME280;54642;59.126;37.876;2022-09-02T10:49:46;99404.59;;;10.04;74.28
67842;BME280;54642;59.126;37.876;2022-09-02T10:52:31;99415.72;;;10.10;73.87
67842;BME280;54642;59.126;37.876;2022-09-02T10:58:13;99414.59;;;10.32;73.29
67842;BME280;54642;59.126;37.876;2022-09-02T11:00:44;99423.81;;;10.49;72.68
67842;BME280;54642;59.126;37.876;2022-09-02T11:06:28;99424.44;;;10.67;71.74
67842;BME280;54642;59.126;37.876;2022-09-02T11:09:02;99423.47;;;10.74;71.78
67842;BME280;54642;59.126;37.876;2022-09-02T11:11:57;99411.66;;;10.55;71.81
67842;BME280;54642;59.126;37.876;2022-09-02T11:17:35;99449.69;;;10.54;72.02
67842;BME280;54642;59.126;37.876;2022-09-02T11:19:50;99461.13;;;10.38;72.84
67842;BME280;54642;59.126;37.876;2022-09-02T11:22:44;99413.19;;;10.06;73.68
67842;BME280;54642;59.126;37.876;2022-09-02T11:25:26;99451.66;;;10.35;73.67
67842;BME280;54642;59.126;37.876;2022-09-02T11:31:13;99461.06;;;10.42;73.67
67842;BME280;54642;59.126;37.876;2022-09-02T11:34:03;99474.81;;;10.46;73.58
67842;BME280;54642;59.126;37.876;2022-09-02T11:36:29;99413.09;;;10.12;73.41
67842;BME280;54642;59.126;37.876;2022-09-02T11:39:17;99475.88;;;10.34;73.66
67842;BME280;54642;59.126;37.876;2022-09-02T11:55:13;99506.31;;;10.12;74.38
67842;BME280;54642;59.126;37.876;2022-09-02T11:57:41;99497.69;;;10.10;74.58
67842;BME280;54642;59.126;37.876;2022-09-02T12:00:23;99509.69;;;10.19;74.39
67842;BME280;54642;59.126;37.876;2022-09-02T12:08:10;99503.66;;;10.17;74.30
67842;BME280;54642;59.126;37.876;2022-09-02T12:13:08;99530.28;;;10.26;74.14
67842;BME280;54642;59.126;37.876;2022-09-02T12:15:37;99529.41;;;10.29;74.02
67842;BME280;54642;59.126;37.876;2022-09-02T12:18:37;99525.94;;;10.32;73.70
67842;BME280;54642;59.126;37.876;2022-09-02T12:21:15;99508.03;;;10.13;73.42
67842;BME280;54642;59.126;37.876;2022-09-02T12:26:15;99532.84;;;10.29;73.41
67842;BME280;54642;59.126;37.876;2022-09-02T12:28:45;99494.28;;;10.08;72.85
67842;BME280;54642;59.126;37.876;2022-09-02T12:33:47;99464.28;;;9.90;73.01
67842;BME280;54642;59.126;37.876;2022-09-02T12:50:05;99582.06;;;10.31;72.87
67842;BME280;54642;59.126;37.876;2022-09-02T12:55:16;99576.94;;;10.25;72.91
67842;BME280;54642;59.126;37.876;2022-09-02T12:57:46;99596.81;;;10.23;73.12
67842;BME280;54642;59.126;37.876;2022-09-02T13:03:06;99547.19;;;9.82;73.91
67842;BME280;54642;59.126;37.876;2022-09-02T13:05:53;99546.38;;;9.79;74.08
67842;BME280;54642;59.126;37.876;2022-09-02T13:17:20;99610.78;;;10.09;74.19
67842;BME280;54642;59.126;37.876;2022-09-02T13:22:57;99520.75;;;9.49;74.22
67842;BME280;54642;59.126;37.876;2022-09-02T13:33:42;99623.72;;;10.08;73.98
67842;BME280;54642;59.126;37.876;2022-09-02T13:36:08;99621.13;;;10.09;73.99
67842;BME280;54642;59.126;37.876;2022-09-02T13:38:34;99626.28;;;10.14;74.03
67842;BME280;54642;59.126;37.876;2022-09-02T13:41:01;99629.69;;;10.15;74.02
67842;BME280;54642;59.126;37.876;2022-09-02T13:43:27;99623.69;;;10.14;73.83
67842;BME280;54642;59.126;37.876;2022-09-02T13:46:02;99635.72;;;10.18;73.82
67842;BME280;54642;59.126;37.876;2022-09-02T13:48:30;99626.19;;;10.19;73.62
67842;BME280;54642;59.126;37.876;2022-09-02T13:51:01;99643.41;;;10.23;73.27
67842;BME280;54642;59.126;37.876;2022-09-02T13:53:38;99640.88;;;10.21;73.40
67842;BME280;54642;59.126;37.876;2022-09-02T13:56:09;99652.91;;;10.25;73.62
67842;BME280;54642;59.126;37.876;2022-09-02T13:58:50;99639.13;;;10.20;73.30
67842;BME280;54642;59.126;37.876;2022-09-02T14:01:31;99610.91;;;9.96;73.22
67842;BME280;54642;59.126;37.876;2022-09-02T14:03:59;99650.34;;;10.22;73.26
67842;BME280;54642;59.126;37.876;2022-09-02T14:06:39;99643.41;;;10.24;73.17
67842;BME280;54642;59.126;37.876;2022-09-02T14:09:07;99655.50;;;10.24;73.07
67842;BME280;54642;59.126;37.876;2022-09-02T14:11:43;99646.03;;;10.21;72.93
67842;BME280;54642;59.126;37.876;2022-09-02T14:14:16;99660.59;;;10.30;73.26
67842;BME280;54642;59.126;37.876;2022-09-02T14:16:42;99656.31;;;10.29;72.95
67842;BME280;54642;59.126;37.876;2022-09-02T14:19:11;99628.88;;;10.13;72.83
67842;BME280;54642;59.126;37.876;2022-09-02T14:21:50;99658.03;;;10.33;72.97
67842;BME280;54642;59.126;37.876;2022-09-02T14:24:25;99606.50;;;10.04;72.87
67842;BME280;54642;59.126;37.876;2022-09-02T14:26:53;99610.84;;;10.02;72.61
67842;BME280;54642;59.126;37.876;2022-09-02T14:29:21;99667.47;;;10.39;72.61
67842;BME280;54642;59.126;37.876;2022-09-02T14:32:08;99666.66;;;10.30;72.83
67842;BME280;54642;59.126;37.876;2022-09-02T14:34:42;99683.00;;;10.40;73.14
67842;BME280;54642;59.126;37.876;2022-09-02T14:37:22;99671.78;;;10.40;72.83
67842;BME280;54642;59.126;37.876;2022-09-02T14:40:05;99675.22;;;10.39;72.88
67842;BME280;54642;59.126;37.876;2022-09-02T14:42:51;99673.53;;;10.38;72.95
67842;BME280;54642;59.126;37.876;2022-09-02T14:45:26;99677.81;;;10.40;73.00
67842;BME280;54642;59.126;37.876;2022-09-02T14:47:53;99671.88;;;10.27;72.62
67842;BME280;54642;59.126;37.876;2022-09-02T14:50:23;99684.72;;;10.40;72.75
67842;BME280;54642;59.126;37.876;2022-09-02T14:52:57;99652.09;;;10.17;72.87
67842;BME280;54642;59.126;37.876;2022-09-02T14:55:54;99681.22;;;10.42;73.32
67842;BME280;54642;59.126;37.876;2022-09-02T14:58:22;99691.59;;;10.41;73.25
67842;BME280;54642;59.126;37.876;2022-09-02T15:00:53;99689.91;;;10.41;73.15
67842;BME280;54642;59.126;37.876;2022-09-02T15:03:24;99686.44;;;10.41;73.03
67842;BME280;54642;59.126;37.876;2022-09-02T15:05:50;99689.91;;;10.41;73.00
67842;BME280;54642;59.126;37.876;2022-09-02T15:08:16;99683.91;;;10.38;72.85
67842;BME280;54642;59.126;37.876;2022-09-02T15:10:43;99689.00;;;10.41;72.50
67842;BME280;54642;59.126;37.876;2022-09-02T15:13:12;99699.34;;;10.44;72.38
67842;BME280;54642;59.126;37.876;2022-09-02T15:15:39;99706.31;;;10.40;72.16